Time;durP1;ratioP1;P1;durP2;ratioP2;P2;SDS_P1;SDS_P2;PMS_P1;PMS_P2;Temp;Humidity;BMP_temperature;BMP_pressure;BME280_temperature;BME280_humidity;BME280_pressure;Samples;Min_cycle;Max_cycle;Signal;HPM_P1;HPM_P2
2022/07/15 00:02:14;;;;;;;0.10;0.10;;;;;;;;;;4973821;28;20454;-82
2022/07/15 00:04:40;;;;;;;0.00;0.00;;;;;;;;;;4991644;28;20414;-82
2022/07/15 00:07:07;;;;;;;0.10;0.10;;;;;;;;;;4992992;28;20413;-82
2022/07/15 00:12:17;;;;;;;0.10;0.10;;;;;;;;;;4977550;28;20780;-82
2022/07/15 00:14:44;;;;;;;0.10;0.10;;;;;;;;;;4995380;28;20928;-82
2022/07/15 00:17:10;;;;;;;0.10;0.10;;;;;;;;;;4994736;28;20416;-82
2022/07/15 00:19:36;;;;;;;0.40;0.40;;;;;;;;;;4995107;28;20426;-82
2022/07/15 00:22:02;;;;;;;0.10;0.10;;;;;;;;;;4994354;28;21066;-82
2022/07/15 00:24:29;;;;;;;0.10;0.10;;;;;;;;;;4994994;28;20410;-82
2022/07/15 00:26:56;;;;;;;0.07;0.07;;;;;;;;;;4994664;28;20431;-83
2022/07/15 00:29:22;;;;;;;0.10;0.10;;;;;;;;;;4994577;28;20497;-83
2022/07/15 00:31:49;;;;;;;0.00;0.00;;;;;;;;;;4994960;28;20813;-82
2022/07/15 00:34:16;;;;;;;0.20;0.20;;;;;;;;;;4977385;28;20933;-83
2022/07/15 00:36:42;;;;;;;0.00;0.00;;;;;;;;;;4994760;28;20418;-83
2022/07/15 00:39:09;;;;;;;0.10;0.10;;;;;;;;;;4977065;28;20438;-83
2022/07/15 00:41:42;;;;;;;0.10;0.10;;;;;;;;;;4994515;28;20460;-82
2022/07/15 00:44:08;;;;;;;0.10;0.10;;;;;;;;;;4994705;28;20411;-82
2022/07/15 00:46:35;;;;;;;0.10;0.10;;;;;;;;;;4994567;28;20413;-83
2022/07/15 00:49:03;;;;;;;0.10;0.10;;;;;;;;;;4977395;28;20825;-83
2022/07/15 00:51:35;;;;;;;0.10;0.10;;;;;;;;;;4994634;28;20414;-84
2022/07/15 00:54:01;;;;;;;0.00;0.00;;;;;;;;;;4994575;28;20453;-88
2022/07/15 00:56:28;;;;;;;0.10;0.10;;;;;;;;;;4993893;28;20418;-87
2022/07/15 00:58:54;;;;;;;0.10;0.10;;;;;;;;;;4994412;28;20431;-81
2022/07/15 01:01:21;;;;;;;0.10;0.10;;;;;;;;;;4994123;28;20494;-83
2022/07/15 01:03:48;;;;;;;0.00;0.00;;;;;;;;;;4994412;28;20421;-76
2022/07/15 01:06:15;;;;;;;0.10;0.10;;;;;;;;;;4993855;28;20423;-82
2022/07/15 01:08:41;;;;;;;0.10;0.10;;;;;;;;;;4994236;28;20980;-83
2022/07/15 01:11:07;;;;;;;0.10;0.10;;;;;;;;;;4993541;28;20427;-82
2022/07/15 01:13:33;;;;;;;0.00;0.00;;;;;;;;;;4994291;28;20419;-83
2022/07/15 01:15:59;;;;;;;0.10;0.10;;;;;;;;;;4976758;28;20414;-83
2022/07/15 01:18:25;;;;;;;0.10;0.10;;;;;;;;;;4993120;28;20679;-83
2022/07/15 01:20:51;;;;;;;0.10;0.10;;;;;;;;;;4976880;28;20501;-83
2022/07/15 01:23:18;;;;;;;0.10;0.10;;;;;;;;;;4993618;28;20411;-82
2022/07/15 01:25:44;;;;;;;0.10;0.10;;;;;;;;;;4976905;28;20414;-82
2022/07/15 01:28:11;;;;;;;0.10;0.10;;;;;;;;;;4993235;28;20415;-82
2022/07/15 01:30:37;;;;;;;0.00;0.00;;;;;;;;;;4993385;28;20869;-83
2022/07/15 01:33:04;;;;;;;0.10;0.10;;;;;;;;;;4993754;28;20410;-83
2022/07/15 01:35:30;;;;;;;0.00;0.00;;;;;;;;;;4993591;28;20493;-83
2022/07/15 01:37:56;;;;;;;0.00;0.00;;;;;;;;;;4993450;28;20406;-83
2022/07/15 01:40:22;;;;;;;0.10;0.10;;;;;;;;;;4960049;28;20426;-83
2022/07/15 01:42:48;;;;;;;0.10;0.10;;;;;;;;;;4993357;28;20414;-82
2022/07/15 01:45:14;;;;;;;0.10;0.10;;;;;;;;;;4993297;28;20413;-81
2022/07/15 01:47:43;;;;;;;0.10;0.10;;;;;;;;;;4993370;28;20913;-82
2022/07/15 01:50:10;;;;;;;0.10;0.10;;;;;;;;;;4992978;28;20449;-82
2022/07/15 01:52:36;;;;;;;0.10;0.10;;;;;;;;;;4993111;28;20927;-82
2022/07/15 01:55:02;;;;;;;0.10;0.10;;;;;;;;;;4993469;28;20410;-84
2022/07/15 01:57:28;;;;;;;0.00;0.00;;;;;;;;;;4975781;28;20751;-83
2022/07/15 01:59:54;;;;;;;0.10;0.10;;;;;;;;;;4975924;28;20790;-82
2022/07/15 02:02:20;;;;;;;0.10;0.10;;;;;;;;;;4975608;28;20477;-82
2022/07/15 02:04:46;;;;;;;0.00;0.00;;;;;;;;;;4993386;28;20805;-82
2022/07/15 02:07:13;;;;;;;0.00;0.00;;;;;;;;;;4992465;28;20909;-82
2022/07/15 02:09:39;;;;;;;0.10;0.10;;;;;;;;;;4992731;28;20398;-82
2022/07/15 02:12:06;;;;;;;0.10;0.10;;;;;;;;;;4960038;28;20415;-82
2022/07/15 02:14:32;;;;;;;0.10;0.10;;;;;;;;;;4975183;28;20410;-83
2022/07/15 02:16:59;;;;;;;0.07;0.07;;;;;;;;;;4989450;28;20407;-83
2022/07/15 02:19:26;;;;;;;0.10;0.10;;;;;;;;;;4992169;28;20429;-83
2022/07/15 02:21:52;;;;;;;0.00;0.00;;;;;;;;;;4975818;28;20410;-83
2022/07/15 02:24:19;;;;;;;0.00;0.00;;;;;;;;;;4992323;28;20411;-83
2022/07/15 02:26:46;;;;;;;0.00;0.00;;;;;;;;;;4992847;28;20509;-82
2022/07/15 02:29:12;;;;;;;0.10;0.10;;;;;;;;;;4992736;28;20482;-82
2022/07/15 02:31:38;;;;;;;0.10;0.10;;;;;;;;;;4992746;28;20904;-82
2022/07/15 02:34:05;;;;;;;0.00;0.00;;;;;;;;;;4992440;28;20445;-83
2022/07/15 02:36:31;;;;;;;0.10;0.10;;;;;;;;;;4992303;28;20415;-83
2022/07/15 02:38:57;;;;;;;0.28;0.20;;;;;;;;;;4992564;28;20426;-83
2022/07/15 02:41:23;;;;;;;0.10;0.10;;;;;;;;;;4974804;28;20415;-83
2022/07/15 02:43:49;;;;;;;0.10;0.10;;;;;;;;;;4992504;28;20410;-82
2022/07/15 02:46:16;;;;;;;0.00;0.00;;;;;;;;;;4974764;28;20907;-81
2022/07/15 02:48:42;;;;;;;0.10;0.10;;;;;;;;;;4992313;28;20402;-82
2022/07/15 02:51:08;;;;;;;0.10;0.10;;;;;;;;;;4992120;28;20398;-82
2022/07/15 02:53:35;;;;;;;0.10;0.10;;;;;;;;;;4974557;28;20426;-83
2022/07/15 02:56:01;;;;;;;0.10;0.10;;;;;;;;;;4992246;28;20401;-82
2022/07/15 02:58:30;;;;;;;0.17;0.17;;;;;;;;;;4991762;28;20913;-82
2022/07/15 03:00:56;;;;;;;0.10;0.10;;;;;;;;;;4992023;28;20505;-82
2022/07/15 03:03:23;;;;;;;0.10;0.10;;;;;;;;;;4991921;28;20410;-82
2022/07/15 03:05:49;;;;;;;0.10;0.10;;;;;;;;;;4975558;28;20410;-82
2022/07/15 03:08:15;;;;;;;0.10;0.10;;;;;;;;;;4991974;28;20399;-82
2022/07/15 03:10:41;;;;;;;0.10;0.10;;;;;;;;;;4991886;28;20410;-82
2022/07/15 03:13:08;;;;;;;0.00;0.00;;;;;;;;;;4992237;28;20418;-82
2022/07/15 03:15:34;;;;;;;0.00;0.00;;;;;;;;;;4958638;28;20473;-82
2022/07/15 03:18:00;;;;;;;0.00;0.00;;;;;;;;;;4991776;28;20806;-82
2022/07/15 03:20:26;;;;;;;0.00;0.00;;;;;;;;;;4991839;28;20529;-82
2022/07/15 03:22:53;;;;;;;0.03;0.03;;;;;;;;;;4991997;28;20406;-82
2022/07/15 03:25:19;;;;;;;0.10;0.10;;;;;;;;;;4974186;28;20425;-81
2022/07/15 03:27:45;;;;;;;0.00;0.00;;;;;;;;;;4991939;28;20445;-82
2022/07/15 03:30:11;;;;;;;0.10;0.10;;;;;;;;;;4992172;28;20489;-81
2022/07/15 03:32:37;;;;;;;0.10;0.10;;;;;;;;;;4991589;28;20844;-81
2022/07/15 03:35:04;;;;;;;0.10;0.10;;;;;;;;;;4991785;28;20413;-80
2022/07/15 03:37:30;;;;;;;0.10;0.10;;;;;;;;;;4991261;28;20446;-81
2022/07/15 03:39:56;;;;;;;0.10;0.10;;;;;;;;;;4991648;28;20521;-82
2022/07/15 03:42:22;;;;;;;0.10;0.10;;;;;;;;;;4993639;28;20410;-81
2022/07/15 03:44:48;;;;;;;0.10;0.10;;;;;;;;;;4995558;28;20406;-81
2022/07/15 03:47:14;;;;;;;0.10;0.10;;;;;;;;;;4978710;28;20457;-81
2022/07/15 03:49:41;;;;;;;0.00;0.00;;;;;;;;;;4995381;28;20429;-81
2022/07/15 03:52:07;;;;;;;0.10;0.10;;;;;;;;;;4978463;28;20418;-82
2022/07/15 03:54:33;;;;;;;0.10;0.10;;;;;;;;;;4995113;28;20414;-83
2022/07/15 03:56:59;;;;;;;0.00;0.00;;;;;;;;;;4995401;28;20925;-82
2022/07/15 03:59:26;;;;;;;0.10;0.10;;;;;;;;;;4977864;28;20426;-82
2022/07/15 04:01:52;;;;;;;0.00;0.00;;;;;;;;;;4995480;28;20510;-81
2022/07/15 04:04:18;;;;;;;0.10;0.10;;;;;;;;;;4995503;28;20414;-81
2022/07/15 04:06:45;;;;;;;0.10;0.10;;;;;;;;;;4994818;28;20496;-82
2022/07/15 04:09:12;;;;;;;0.10;0.10;;;;;;;;;;4995147;28;20889;-81
2022/07/15 04:11:41;;;;;;;0.10;0.10;;;;;;;;;;4995001;28;20414;-82
2022/07/15 04:14:08;;;;;;;0.10;0.10;;;;;;;;;;4995180;28;20425;-82
2022/07/15 04:16:34;;;;;;;0.10;0.10;;;;;;;;;;4994634;28;20402;-82
2022/07/15 04:19:00;;;;;;;0.10;0.10;;;;;;;;;;4977379;28;20434;-82
2022/07/15 04:21:26;;;;;;;0.10;0.10;;;;;;;;;;4994837;28;20489;-83
2022/07/15 04:23:52;;;;;;;0.10;0.10;;;;;;;;;;4977713;28;20406;-83
2022/07/15 04:26:18;;;;;;;0.10;0.10;;;;;;;;;;4994941;28;20820;-81
2022/07/15 04:28:44;;;;;;;0.10;0.10;;;;;;;;;;4994553;28;20940;-78
2022/07/15 04:31:11;;;;;;;0.00;0.00;;;;;;;;;;4977699;28;20422;-83
2022/07/15 04:33:37;;;;;;;0.10;0.10;;;;;;;;;;4960911;28;20509;-84
2022/07/15 04:36:03;;;;;;;0.10;0.10;;;;;;;;;;4977574;28;20415;-79
2022/07/15 04:38:29;;;;;;;0.10;0.10;;;;;;;;;;4976873;28;20481;-84
2022/07/15 04:40:55;;;;;;;0.10;0.10;;;;;;;;;;4961306;28;20406;-81
2022/07/15 04:43:21;;;;;;;0.00;0.00;;;;;;;;;;4994590;28;20908;-81
2022/07/15 04:45:47;;;;;;;0.10;0.10;;;;;;;;;;4976903;28;20410;-80
2022/07/15 04:50:58;;;;;;;0.10;0.10;;;;;;;;;;4994266;28;20493;-81
2022/07/15 04:53:24;;;;;;;0.00;0.00;;;;;;;;;;4992844;28;20414;-81
2022/07/15 04:55:50;;;;;;;0.10;0.10;;;;;;;;;;4976891;28;20414;-80
2022/07/15 04:58:16;;;;;;;0.00;0.00;;;;;;;;;;4994430;28;20453;-81
2022/07/15 05:00:43;;;;;;;0.10;0.10;;;;;;;;;;4993610;28;20761;-79
2022/07/15 05:03:09;;;;;;;0.00;0.00;;;;;;;;;;4994439;28;20485;-80
2022/07/15 05:05:35;;;;;;;0.00;0.00;;;;;;;;;;4993718;28;20893;-81
2022/07/15 05:08:01;;;;;;;0.00;0.00;;;;;;;;;;4976942;28;20450;-85
2022/07/15 05:10:27;;;;;;;0.00;0.00;;;;;;;;;;4973318;28;20447;-81
2022/07/15 05:12:53;;;;;;;0.00;0.00;;;;;;;;;;4974017;28;20892;-80
2022/07/15 05:15:19;;;;;;;0.10;0.10;;;;;;;;;;4973690;28;20507;-79
2022/07/15 05:17:46;;;;;;;0.08;0.08;;;;;;;;;;4974176;28;20416;-78
2022/07/15 05:20:12;;;;;;;0.03;0.03;;;;;;;;;;4957191;28;20451;-78
2022/07/15 05:22:38;;;;;;;0.00;0.00;;;;;;;;;;4973874;28;20930;-77
2022/07/15 05:25:05;;;;;;;0.10;0.10;;;;;;;;;;4974149;28;20412;-78
2022/07/15 05:27:31;;;;;;;0.00;0.00;;;;;;;;;;4974065;28;20421;-79
2022/07/15 05:29:57;;;;;;;0.10;0.10;;;;;;;;;;4974372;28;20415;-80
2022/07/15 05:32:23;;;;;;;0.00;0.00;;;;;;;;;;4973125;28;20446;-81
2022/07/15 05:34:49;;;;;;;0.10;0.10;;;;;;;;;;4972885;28;20423;-80
2022/07/15 05:37:15;;;;;;;0.00;0.00;;;;;;;;;;4973312;28;20583;-78
2022/07/15 05:39:53;;;;;;;0.00;0.00;;;;;;;;;;4973474;28;20432;-77
2022/07/15 05:42:22;;;;;;;0.10;0.10;;;;;;;;;;4971156;28;21131;-80
2022/07/15 05:44:49;;;;;;;0.10;0.10;;;;;;;;;;4952011;28;20517;-81
2022/07/15 05:47:15;;;;;;;0.10;0.10;;;;;;;;;;4969344;28;20942;-80
2022/07/15 05:49:41;;;;;;;0.00;0.00;;;;;;;;;;4969321;28;20415;-82
2022/07/15 05:52:07;;;;;;;0.10;0.10;;;;;;;;;;4969612;28;20408;-81
2022/07/15 05:54:33;;;;;;;0.00;0.00;;;;;;;;;;4973055;28;20900;-81
2022/07/15 05:56:59;;;;;;;0.10;0.10;;;;;;;;;;4972278;28;20408;-81
2022/07/15 05:59:25;;;;;;;0.00;0.00;;;;;;;;;;4972714;28;20856;-82
2022/07/15 06:01:51;;;;;;;0.08;0.08;;;;;;;;;;4973270;28;20055;-82
2022/07/15 06:04:17;;;;;;;0.10;0.10;;;;;;;;;;4974258;28;20051;-81
2022/07/15 06:06:43;;;;;;;0.00;0.00;;;;;;;;;;4974390;28;20046;-80
2022/07/15 06:09:09;;;;;;;0.05;0.05;;;;;;;;;;4974553;28;20053;-81
2022/07/15 06:11:36;;;;;;;0.10;0.10;;;;;;;;;;4989430;28;20058;-82
2022/07/15 06:14:03;;;;;;;0.00;0.00;;;;;;;;;;4960843;28;20058;-81
2022/07/15 06:16:29;;;;;;;0.00;0.00;;;;;;;;;;4994047;28;20050;-79
2022/07/15 06:18:56;;;;;;;0.10;0.10;;;;;;;;;;4960330;28;20045;-80
2022/07/15 06:21:22;;;;;;;0.10;0.10;;;;;;;;;;4993888;28;20054;-82
2022/07/15 06:23:48;;;;;;;0.10;0.10;;;;;;;;;;4976017;28;20544;-78
2022/07/15 06:26:14;;;;;;;0.10;0.10;;;;;;;;;;4993733;28;20053;-80
2022/07/15 06:28:40;;;;;;;0.10;0.10;;;;;;;;;;4993568;28;20046;-80
2022/07/15 06:31:06;;;;;;;0.00;0.00;;;;;;;;;;4993495;28;20077;-77
2022/07/15 06:33:32;;;;;;;0.00;0.00;;;;;;;;;;4960482;28;20390;-81
2022/07/15 06:35:58;;;;;;;0.00;0.00;;;;;;;;;;4975899;28;20192;-79
2022/07/15 06:38:24;;;;;;;0.10;0.10;;;;;;;;;;4992352;28;20047;-78
2022/07/15 06:40:50;;;;;;;0.10;0.10;;;;;;;;;;4993216;28;20402;-81
2022/07/15 06:43:16;;;;;;;0.10;0.10;;;;;;;;;;4992961;28;20391;-79
2022/07/15 06:45:42;;;;;;;0.10;0.10;;;;;;;;;;4993259;28;20043;-80
2022/07/15 06:48:08;;;;;;;0.10;0.10;;;;;;;;;;4993697;28;20050;-79
2022/07/15 06:50:34;;;;;;;0.50;0.50;;;;;;;;;;4960535;28;20370;-79
2022/07/15 06:53:02;;;;;;;0.00;0.00;;;;;;;;;;4992851;28;20131;-78
2022/07/15 06:55:28;;;;;;;0.10;0.10;;;;;;;;;;4993344;28;20054;-83
2022/07/15 06:57:54;;;;;;;0.10;0.10;;;;;;;;;;4992871;28;20078;-82
2022/07/15 07:00:20;;;;;;;0.10;0.10;;;;;;;;;;4976202;28;20046;-82
2022/07/15 07:02:46;;;;;;;0.10;0.10;;;;;;;;;;4992804;28;20469;-82
2022/07/15 07:05:12;;;;;;;0.10;0.10;;;;;;;;;;4993672;28;20077;-82
2022/07/15 07:07:38;;;;;;;0.10;0.10;;;;;;;;;;4974784;28;20419;-81
2022/07/15 07:10:05;;;;;;;0.10;0.10;;;;;;;;;;4991431;28;20510;-80
2022/07/15 07:12:31;;;;;;;0.10;0.10;;;;;;;;;;4992302;28;20886;-80
2022/07/15 07:15:00;;;;;;;0.03;0.03;;;;;;;;;;4958092;28;20418;-80
2022/07/15 07:17:27;;;;;;;0.10;0.05;;;;;;;;;;4991245;28;20411;-80
2022/07/15 07:19:53;;;;;;;0.00;0.00;;;;;;;;;;4991372;28;20546;-80
2022/07/15 07:22:19;;;;;;;0.10;0.10;;;;;;;;;;4991885;28;20869;-80
2022/07/15 07:24:45;;;;;;;0.10;0.10;;;;;;;;;;4991464;28;20460;-80
2022/07/15 07:27:11;;;;;;;0.10;0.10;;;;;;;;;;4974351;28;20472;-80
2022/07/15 07:29:37;;;;;;;0.00;0.00;;;;;;;;;;4991752;28;20889;-81
2022/07/15 07:32:04;;;;;;;0.20;0.20;;;;;;;;;;4991342;28;20816;-80
2022/07/15 07:34:30;;;;;;;0.10;0.10;;;;;;;;;;4974926;28;20422;-80
2022/07/15 07:36:56;;;;;;;0.00;0.00;;;;;;;;;;4991275;28;20455;-80
2022/07/15 07:39:22;;;;;;;0.00;0.00;;;;;;;;;;4991949;28;20521;-80
2022/07/15 07:41:52;;;;;;;0.10;0.10;;;;;;;;;;4991623;28;20418;-80
2022/07/15 07:44:18;;;;;;;0.00;0.00;;;;;;;;;;4991782;28;20508;-75
2022/07/15 07:46:45;;;;;;;0.10;0.10;;;;;;;;;;4974182;28;20439;-81
2022/07/15 07:49:12;;;;;;;0.10;0.10;;;;;;;;;;4991265;28;20402;-81
2022/07/15 07:51:40;;;;;;;0.10;0.10;;;;;;;;;;4991701;28;20425;-81
2022/07/15 07:54:07;;;;;;;0.10;0.10;;;;;;;;;;4991385;28;20920;-81
2022/07/15 07:56:33;;;;;;;0.10;0.10;;;;;;;;;;4991930;28;20421;-81
2022/07/15 07:58:59;;;;;;;0.00;0.00;;;;;;;;;;4991545;28;20433;-82
2022/07/15 08:01:25;;;;;;;0.10;0.10;;;;;;;;;;4991395;28;20904;-81
2022/07/15 08:03:51;;;;;;;0.10;0.10;;;;;;;;;;4991195;28;20406;-81
2022/07/15 08:06:17;;;;;;;0.08;0.08;;;;;;;;;;4991545;28;20476;-81
2022/07/15 08:08:44;;;;;;;0.10;0.10;;;;;;;;;;4991781;28;20403;-81
2022/07/15 08:11:11;;;;;;;0.10;0.10;;;;;;;;;;4990969;28;20433;-81
2022/07/15 08:13:37;;;;;;;0.10;0.10;;;;;;;;;;4974418;28;20473;-81
2022/07/15 08:16:03;;;;;;;0.10;0.10;;;;;;;;;;4973833;28;20503;-82
2022/07/15 08:18:29;;;;;;;0.10;0.10;;;;;;;;;;4991470;28;20434;-81
2022/07/15 08:20:56;;;;;;;0.10;0.10;;;;;;;;;;4974132;28;20454;-81
2022/07/15 08:23:22;;;;;;;0.10;0.10;;;;;;;;;;4991605;28;20418;-81
2022/07/15 08:25:49;;;;;;;0.10;0.10;;;;;;;;;;4973877;28;20801;-83
2022/07/15 08:28:15;;;;;;;0.10;0.10;;;;;;;;;;4993499;28;20448;-81
2022/07/15 08:30:41;;;;;;;0.10;0.10;;;;;;;;;;4994420;28;20418;-80
2022/07/15 08:33:07;;;;;;;0.10;0.10;;;;;;;;;;4994235;28;20488;-80
2022/07/15 08:35:34;;;;;;;0.10;0.10;;;;;;;;;;4961780;28;20441;-81
2022/07/15 08:38:05;;;;;;;0.10;0.10;;;;;;;;;;4994225;28;20500;-81
2022/07/15 08:40:31;;;;;;;0.10;0.10;;;;;;;;;;4977698;28;21028;-81
2022/07/15 08:42:57;;;;;;;0.10;0.10;;;;;;;;;;4994926;28;20418;-81
2022/07/15 08:45:23;;;;;;;0.10;0.10;;;;;;;;;;4994454;28;20493;-84
2022/07/15 08:47:51;;;;;;;0.00;0.00;;;;;;;;;;4994592;28;20425;-81
2022/07/15 08:50:18;;;;;;;0.10;0.10;;;;;;;;;;4977019;28;20473;-80
2022/07/15 08:52:45;;;;;;;0.10;0.10;;;;;;;;;;4994350;28;20489;-81
2022/07/15 08:55:11;;;;;;;0.40;0.20;;;;;;;;;;4994089;28;20897;-83
2022/07/15 08:57:38;;;;;;;1.50;0.60;;;;;;;;;;4994326;28;20415;-83
2022/07/15 09:00:07;;;;;;;0.00;0.00;;;;;;;;;;4976599;28;20833;-83
2022/07/15 09:02:36;;;;;;;0.00;0.00;;;;;;;;;;4977353;28;20417;-83
2022/07/15 09:05:23;;;;;;;0.00;0.00;;;;;;;;;;4960378;28;20480;-82
2022/07/15 09:08:14;;;;;;;0.00;0.00;;;;;;;;;;4976851;28;20422;-82
2022/07/15 09:10:55;;;;;;;0.00;0.00;;;;;;;;;;4976817;28;20422;-83
2022/07/15 09:13:22;;;;;;;0.00;0.00;;;;;;;;;;4993941;28;20505;-88
2022/07/15 09:15:49;;;;;;;0.10;0.10;;;;;;;;;;4977127;28;20462;-82
2022/07/15 09:18:16;;;;;;;0.08;0.08;;;;;;;;;;4993630;28;20578;-82
2022/07/15 09:20:43;;;;;;;0.10;0.10;;;;;;;;;;4961247;28;20505;-84
2022/07/15 09:23:11;;;;;;;0.10;0.10;;;;;;;;;;4976423;28;20414;-80
2022/07/15 09:25:38;;;;;;;0.10;0.10;;;;;;;;;;4993803;28;20827;-84
2022/07/15 09:28:05;;;;;;;0.10;0.10;;;;;;;;;;4976660;28;20417;-83
2022/07/15 09:33:34;;;;;;;0.00;0.00;;;;;;;;;;4993603;28;20413;-81
2022/07/15 09:36:03;;;;;;;0.10;0.10;;;;;;;;;;4993133;28;20413;-81
2022/07/15 09:38:33;;;;;;;0.10;0.10;;;;;;;;;;4993275;28;20457;-81
2022/07/15 09:41:00;;;;;;;0.00;0.00;;;;;;;;;;4992603;28;20916;-83
2022/07/15 09:43:26;;;;;;;0.10;0.10;;;;;;;;;;4976442;28;20809;-81
2022/07/15 09:45:59;;;;;;;0.10;0.10;;;;;;;;;;4993324;28;20411;-82
2022/07/15 09:48:28;;;;;;;0.10;0.10;;;;;;;;;;4993462;28;20418;-80
2022/07/15 09:50:58;;;;;;;0.00;0.00;;;;;;;;;;4993413;28;21003;-78
2022/07/15 09:53:25;;;;;;;1.88;0.15;;;;;;;;;;4976227;28;21008;-79
2022/07/15 09:55:51;;;;;;;0.08;0.08;;;;;;;;;;4976096;28;20457;-77
2022/07/15 09:58:19;;;;;;;0.10;0.10;;;;;;;;;;4992843;28;20419;-77
2022/07/15 10:00:45;;;;;;;0.10;0.10;;;;;;;;;;4993163;28;20461;-78
2022/07/15 10:03:12;;;;;;;0.10;0.10;;;;;;;;;;4992852;28;20411;-77
2022/07/15 10:05:39;;;;;;;0.00;0.00;;;;;;;;;;4993206;28;20948;-77
2022/07/15 10:08:06;;;;;;;0.00;0.00;;;;;;;;;;4992789;28;20406;-77
2022/07/15 10:10:33;;;;;;;0.10;0.10;;;;;;;;;;4992510;28;20421;-82
2022/07/15 10:13:05;;;;;;;0.10;0.10;;;;;;;;;;4975603;28;20438;-84
2022/07/15 10:15:47;;;;;;;0.00;0.00;;;;;;;;;;4993259;28;20418;-79
2022/07/15 10:18:16;;;;;;;0.00;0.00;;;;;;;;;;4993542;28;20426;-77
2022/07/15 10:20:55;;;;;;;0.03;0.03;;;;;;;;;;4992813;28;20407;-80
2022/07/15 10:23:27;;;;;;;0.10;0.10;;;;;;;;;;4975013;28;20894;-78
2022/07/15 10:26:07;;;;;;;0.00;0.00;;;;;;;;;;4992876;28;20407;-79
2022/07/15 10:28:54;;;;;;;0.00;0.00;;;;;;;;;;4992661;28;20437;-80
2022/07/15 10:31:22;;;;;;;0.00;0.00;;;;;;;;;;4974767;28;20424;-81
2022/07/15 10:34:07;;;;;;;0.10;0.10;;;;;;;;;;4992757;28;20477;-79
2022/07/15 10:36:53;;;;;;;0.10;0.10;;;;;;;;;;4992248;28;20414;-79
2022/07/15 10:39:20;;;;;;;0.00;0.00;;;;;;;;;;4992261;28;20436;-77
2022/07/15 10:41:59;;;;;;;0.10;0.10;;;;;;;;;;4992634;28;20765;-79
2022/07/15 10:44:26;;;;;;;0.40;0.40;;;;;;;;;;4992369;28;20913;-79
2022/07/15 10:47:11;;;;;;;0.10;0.10;;;;;;;;;;4992402;28;20406;-77
2022/07/15 10:49:37;;;;;;;0.10;0.10;;;;;;;;;;4992186;28;20406;-77
2022/07/15 10:52:29;;;;;;;0.03;0.03;;;;;;;;;;4991050;28;20417;-76
2022/07/15 10:54:55;;;;;;;0.10;0.10;;;;;;;;;;4971806;28;20941;-79
2022/07/15 10:57:21;;;;;;;0.10;0.10;;;;;;;;;;4991875;28;20548;-75
2022/07/15 10:59:52;;;;;;;0.10;0.10;;;;;;;;;;4992035;28;20437;-74
2022/07/15 11:02:19;;;;;;;0.10;0.10;;;;;;;;;;4974269;28;20418;-80
2022/07/15 11:04:46;;;;;;;0.10;0.10;;;;;;;;;;4992130;28;20402;-77
2022/07/15 11:07:15;;;;;;;0.10;0.10;;;;;;;;;;4992176;28;20414;-77
2022/07/15 11:09:47;;;;;;;0.10;0.10;;;;;;;;;;4974929;28;20469;-76
2022/07/15 11:12:14;;;;;;;0.10;0.10;;;;;;;;;;4991781;28;20814;-76
2022/07/15 11:14:49;;;;;;;0.10;0.10;;;;;;;;;;4975186;28;20419;-75
2022/07/15 11:17:17;;;;;;;0.10;0.10;;;;;;;;;;4991800;28;20546;-76
2022/07/15 11:19:47;;;;;;;0.10;0.10;;;;;;;;;;4992207;28;20476;-75
2022/07/15 11:22:13;;;;;;;0.10;0.10;;;;;;;;;;4992028;28;20424;-76
2022/07/15 11:24:39;;;;;;;0.00;0.00;;;;;;;;;;4991849;28;20414;-74
2022/07/15 11:27:05;;;;;;;0.10;0.10;;;;;;;;;;4992451;28;20414;-75
2022/07/15 11:29:42;;;;;;;0.10;0.10;;;;;;;;;;4974294;28;20472;-76
2022/07/15 11:32:08;;;;;;;2.00;0.80;;;;;;;;;;4974632;28;20423;-76
2022/07/15 11:34:39;;;;;;;0.10;0.10;;;;;;;;;;4992252;28;20410;-79
2022/07/15 11:37:05;;;;;;;0.10;0.10;;;;;;;;;;4974390;28;20917;-76
2022/07/15 11:39:32;;;;;;;0.10;0.10;;;;;;;;;;4991561;28;20513;-82
2022/07/15 11:44:47;;;;;;;0.30;0.30;;;;;;;;;;4992137;28;20407;-76
2022/07/15 11:47:13;;;;;;;0.10;0.10;;;;;;;;;;4974295;28;20445;-80
2022/07/15 11:49:43;;;;;;;0.10;0.10;;;;;;;;;;4992058;28;20750;-77
2022/07/15 11:52:22;;;;;;;0.10;0.10;;;;;;;;;;4990350;28;20410;-81
2022/07/15 11:54:48;;;;;;;0.10;0.10;;;;;;;;;;4992033;28;20399;-75
2022/07/15 11:57:14;;;;;;;0.05;0.05;;;;;;;;;;4974326;28;20416;-77
2022/07/15 11:59:41;;;;;;;0.10;0.10;;;;;;;;;;4991584;28;20474;-77
2022/07/15 12:02:11;;;;;;;0.10;0.10;;;;;;;;;;4991142;28;20450;-77
2022/07/15 12:04:38;;;;;;;0.10;0.10;;;;;;;;;;4994996;28;20983;-77
2022/07/15 12:07:05;;;;;;;0.10;0.10;;;;;;;;;;4995289;28;20560;-77
2022/07/15 12:09:40;;;;;;;0.10;0.10;;;;;;;;;;4995222;28;20489;-76
2022/07/15 12:12:06;;;;;;;0.10;0.10;;;;;;;;;;4994989;28;20419;-77
2022/07/15 12:14:32;;;;;;;0.10;0.10;;;;;;;;;;4995071;28;20422;-77
2022/07/15 12:16:59;;;;;;;0.10;0.10;;;;;;;;;;4995124;28;20437;-78
2022/07/15 12:19:26;;;;;;;0.10;0.10;;;;;;;;;;4994984;28;20456;-77
2022/07/15 12:21:54;;;;;;;0.10;0.10;;;;;;;;;;4995010;28;20418;-77
2022/07/15 12:24:25;;;;;;;0.10;0.10;;;;;;;;;;4994660;28;20525;-77
2022/07/15 12:26:54;;;;;;;0.00;0.00;;;;;;;;;;4995023;28;20422;-77
2022/07/15 12:29:24;;;;;;;0.00;0.00;;;;;;;;;;4994451;28;20402;-77
2022/07/15 12:31:53;;;;;;;0.10;0.10;;;;;;;;;;4994939;28;20426;-76
2022/07/15 12:34:19;;;;;;;2.40;0.40;;;;;;;;;;4994284;28;20952;-77
2022/07/15 12:36:55;;;;;;;0.10;0.10;;;;;;;;;;4977844;28;20414;-77
2022/07/15 12:39:21;;;;;;;0.05;0.05;;;;;;;;;;4994335;28;20422;-77
2022/07/15 12:41:58;;;;;;;0.00;0.00;;;;;;;;;;4993416;28;20469;-77
2022/07/15 12:44:25;;;;;;;0.00;0.00;;;;;;;;;;4976815;28;20886;-77
2022/07/15 12:46:56;;;;;;;0.10;0.10;;;;;;;;;;4994535;28;20410;-77
2022/07/15 12:49:41;;;;;;;0.00;0.00;;;;;;;;;;4994788;28;20425;-76
2022/07/15 12:52:19;;;;;;;0.03;0.03;;;;;;;;;;4976795;28;20411;-77
2022/07/15 12:54:46;;;;;;;0.10;0.10;;;;;;;;;;4994649;28;20421;-75
2022/07/15 12:57:19;;;;;;;0.10;0.10;;;;;;;;;;4994561;28;20469;-74
2022/07/15 12:59:58;;;;;;;0.00;0.00;;;;;;;;;;4994426;28;20438;-75
2022/07/15 13:02:25;;;;;;;0.10;0.10;;;;;;;;;;4993971;28;20402;-75
2022/07/15 13:04:51;;;;;;;0.10;0.10;;;;;;;;;;4994488;28;20407;-74
2022/07/15 13:07:18;;;;;;;0.10;0.10;;;;;;;;;;4993979;28;20449;-78
2022/07/15 13:09:44;;;;;;;0.10;0.10;;;;;;;;;;4994141;28;20409;-79
2022/07/15 13:12:11;;;;;;;0.00;0.00;;;;;;;;;;4976696;28;20423;-77
2022/07/15 13:14:38;;;;;;;0.50;0.20;;;;;;;;;;4993192;28;20528;-76
2022/07/15 13:17:05;;;;;;;0.10;0.10;;;;;;;;;;4976754;28;20757;-77
2022/07/15 13:19:32;;;;;;;0.10;0.10;;;;;;;;;;4993719;28;20470;-77
2022/07/15 13:21:58;;;;;;;0.10;0.10;;;;;;;;;;4993996;28;20417;-78
2022/07/15 13:24:25;;;;;;;0.05;0.05;;;;;;;;;;4993705;28;20410;-80
2022/07/15 13:26:51;;;;;;;0.40;0.40;;;;;;;;;;4994195;28;20610;-82
2022/07/15 13:29:17;;;;;;;0.10;0.10;;;;;;;;;;4993600;28;20445;-80
2022/07/15 13:31:43;;;;;;;0.10;0.10;;;;;;;;;;4993231;28;20406;-78
2022/07/15 13:34:09;;;;;;;0.30;0.30;;;;;;;;;;4993920;28;20406;-77
2022/07/15 13:36:36;;;;;;;0.10;0.10;;;;;;;;;;4993546;28;20460;-77
2022/07/15 13:39:02;;;;;;;0.10;0.10;;;;;;;;;;4976178;28;20984;-77
2022/07/15 13:41:28;;;;;;;0.10;0.10;;;;;;;;;;4993454;28;20496;-77
2022/07/15 13:43:54;;;;;;;0.08;0.08;;;;;;;;;;4993745;28;20493;-77
2022/07/15 13:46:21;;;;;;;0.10;0.10;;;;;;;;;;4993288;28;20417;-79
2022/07/15 13:48:47;;;;;;;0.00;0.00;;;;;;;;;;4993550;28;20469;-78
2022/07/15 13:51:25;;;;;;;0.10;0.10;;;;;;;;;;4993160;28;20893;-78
2022/07/15 13:53:52;;;;;;;0.10;0.10;;;;;;;;;;4993471;28;20409;-77
2022/07/15 13:56:19;;;;;;;0.10;0.10;;;;;;;;;;4992552;28;20453;-78
2022/07/15 13:58:45;;;;;;;0.40;0.30;;;;;;;;;;4992285;28;20521;-77
2022/07/15 14:01:11;;;;;;;0.10;0.10;;;;;;;;;;4974825;28;20925;-77
2022/07/15 14:03:37;;;;;;;0.10;0.10;;;;;;;;;;4975403;28;20805;-77
2022/07/15 14:06:04;;;;;;;0.10;0.10;;;;;;;;;;4975565;28;20429;-80
2022/07/15 14:08:30;;;;;;;0.10;0.10;;;;;;;;;;4992541;28;20812;-78
2022/07/15 14:10:56;;;;;;;0.10;0.10;;;;;;;;;;4991967;28;20425;-80
2022/07/15 14:13:22;;;;;;;0.10;0.10;;;;;;;;;;4975094;28;20426;-78
2022/07/15 14:15:48;;;;;;;0.10;0.10;;;;;;;;;;4992596;28;20470;-78
2022/07/15 14:18:14;;;;;;;0.00;0.00;;;;;;;;;;4992129;28;20469;-78
2022/07/15 14:20:45;;;;;;;0.10;0.10;;;;;;;;;;4974589;28;20414;-80
2022/07/15 14:23:12;;;;;;;0.08;0.08;;;;;;;;;;4992229;28;20407;-76
2022/07/15 14:25:39;;;;;;;0.00;0.00;;;;;;;;;;4991044;28;20449;-77
2022/07/15 14:28:05;;;;;;;0.32;0.22;;;;;;;;;;4974715;28;20414;-78
2022/07/15 14:30:32;;;;;;;0.10;0.10;;;;;;;;;;4991803;28;20410;-81
2022/07/15 14:32:58;;;;;;;0.10;0.10;;;;;;;;;;4992168;28;20410;-77
2022/07/15 14:35:24;;;;;;;0.10;0.10;;;;;;;;;;4992127;28;20444;-84
2022/07/15 14:37:50;;;;;;;0.10;0.10;;;;;;;;;;4992274;28;20410;-78
2022/07/15 14:40:18;;;;;;;0.10;0.10;;;;;;;;;;4992092;28;20477;-78
2022/07/15 14:42:44;;;;;;;0.10;0.10;;;;;;;;;;4991704;28;20509;-81
2022/07/15 14:45:11;;;;;;;0.10;0.10;;;;;;;;;;4974823;28;20472;-80
2022/07/15 14:47:37;;;;;;;0.10;0.10;;;;;;;;;;4991652;28;20417;-79
2022/07/15 14:50:03;;;;;;;0.10;0.10;;;;;;;;;;4991400;28;20750;-78
2022/07/15 14:52:29;;;;;;;0.00;0.00;;;;;;;;;;4990086;28;20716;-77
2022/07/15 14:54:55;;;;;;;0.10;0.10;;;;;;;;;;4991680;28;20406;-77
2022/07/15 14:57:21;;;;;;;0.10;0.10;;;;;;;;;;4992294;28;20446;-76